ZPPP/KMG METAR and TAF weather

Enter ICAO airport designator
Station Type Date Time Source
ZPPP METAR 2020/01/20 18:00 UTC NOAA

ZPPP 201800Z 22006MPS CAVOK 07/02 Q1022 NOSIG


Station Type Date Time Source
ZPPP Decoded METAR 2020/01/20 18:00 UTC NOAA

Kunming, China (ZPPP) 25-01N 102-41E 1892M
Jan 20, 2020 - 01:00 PM EST / 2020.01.20 1800 UTC
Wind: from the SW (220 degrees) at 13 MPH (12 KT):0
Visibility: greater than 7 mile(s):0
Temperature: 44 F (7 C)
Dew Point: 35 F (2 C)
Relative Humidity: 70%
Pressure (altimeter): 30.18 in. Hg (1022 hPa)
ob: ZPPP 201800Z 22006MPS CAVOK 07/02 Q1022 NOSIG
cycle: 18

Station Type Date Time Source
ZPPP TAF 2020/01/20 18:03 UTC NOAA

TAF ZPPP 201318Z 2018/2118 23006MPS 9999 SCT026 TX19/2108Z TN04/2023Z
BECMG 2103/2104 23012G20MPS
BECMG 2111/2112 23006MPS

Example: see airport list